createdAt,value
2022-11-25T00:00:37.613Z,101410.25
2022-11-25T00:03:07.781Z,101405.13
2022-11-25T00:05:38.540Z,101410.09
2022-11-25T00:08:09.367Z,101403.94
2022-11-25T00:10:39.544Z,101403.84
2022-11-25T00:13:09.708Z,101409.25
2022-11-25T00:15:39.802Z,101398.63
2022-11-25T00:18:10.048Z,101398.72
2022-11-25T00:20:40.143Z,101405.47
2022-11-25T00:23:10.356Z,101398.47
2022-11-25T00:25:40.676Z,101414.16
2022-11-25T00:28:11.125Z,101410.78
2022-11-25T00:30:41.283Z,101361.91
2022-11-25T00:33:11.431Z,101392.50
2022-11-25T00:35:41.571Z,101388.38
2022-11-25T00:38:11.918Z,101387.50
2022-11-25T00:40:42.138Z,101390.06
2022-11-25T00:43:30.996Z,101382.97
2022-11-25T00:46:01.155Z,101377.84
2022-11-25T00:48:31.378Z,101382.38
2022-11-25T00:51:01.513Z,101389.38
2022-11-25T00:53:31.816Z,101387.50
2022-11-25T00:56:14.928Z,101397.88
2022-11-25T00:58:45.397Z,101393.44
2022-11-25T01:01:15.732Z,101375.94
2022-11-25T01:03:48.740Z,101380.25
2022-11-25T01:06:19.160Z,101383.72
2022-11-25T01:08:49.800Z,101393.44
2022-11-25T01:11:22.462Z,101389.19
2022-11-25T01:14:00.642Z,101397.84
2022-11-25T01:16:31.982Z,101390.31
2022-11-25T01:19:02.404Z,101392.59
2022-11-25T01:21:34.445Z,101395.34
2022-11-25T01:24:06.613Z,101387.28
2022-11-25T01:26:36.973Z,101394.13
2022-11-25T01:29:12.394Z,101386.59
2022-11-25T01:31:43.279Z,101394.91
2022-11-25T01:34:25.667Z,101404.78
2022-11-25T01:36:55.849Z,101402.44
2022-11-25T01:39:31.956Z,101400.03
2022-11-25T01:42:02.990Z,101376.53
2022-11-25T01:44:33.460Z,101389.03
2022-11-25T01:47:10.370Z,101389.75
2022-11-25T01:49:49.391Z,101357.44
2022-11-25T01:52:28.821Z,101386.97
2022-11-25T01:55:05.573Z,101377.97
2022-11-25T01:57:43.912Z,101404.31
2022-11-25T02:00:15.214Z,101412.84
2022-11-25T02:02:47.931Z,101414.38
2022-11-25T02:05:33.941Z,101405.41
2022-11-25T02:08:06.269Z,101403.53
2022-11-25T02:10:36.704Z,101423.69
2022-11-25T02:13:06.856Z,101413.34
2022-11-25T02:15:37.114Z,101416.69
2022-11-25T02:18:07.761Z,101420.38
2022-11-25T02:20:39.324Z,101419.38
2022-11-25T02:23:19.350Z,101432.47
2022-11-25T02:25:49.586Z,101426.44
2022-11-25T02:28:23.800Z,101422.94
2022-11-25T02:30:54.382Z,101430.75
2022-11-25T02:33:25.585Z,101436.75
2022-11-25T02:36:17.794Z,101434.16
2022-11-25T02:38:51.091Z,101433.31
2022-11-25T02:41:27.209Z,101437.66
2022-11-25T02:43:57.724Z,101442.72
2022-11-25T02:46:29.337Z,101445.31
2022-11-25T02:49:15.058Z,101448.56
2022-11-25T02:51:45.800Z,101449.44
2022-11-25T02:54:16.694Z,101449.50
2022-11-25T02:56:46.900Z,101452.94
2022-11-25T02:59:17.080Z,101434.53
2022-11-25T03:01:47.347Z,101434.50
2022-11-25T03:04:17.522Z,101447.81
2022-11-25T03:06:47.696Z,101459.84
2022-11-25T03:09:17.885Z,101459.88
2022-11-25T03:12:06.871Z,101429.22
2022-11-25T03:14:37.198Z,101463.97
2022-11-25T03:17:07.548Z,101461.47
2022-11-25T03:19:37.720Z,101466.63
2022-11-25T03:22:07.840Z,101473.66
2022-11-25T03:24:38.343Z,101475.38
2022-11-25T03:27:08.644Z,101458.72
2022-11-25T03:29:38.922Z,101467.31
2022-11-25T03:32:12.128Z,101454.16
2022-11-25T03:34:42.305Z,101423.53
2022-11-25T03:37:12.467Z,101472.44
2022-11-25T03:39:42.701Z,101465.25
2022-11-25T03:42:12.912Z,101481.88
2022-11-25T03:44:43.216Z,101480.94
2022-11-25T03:47:13.405Z,101476.72
2022-11-25T03:49:43.480Z,101497.50
2022-11-25T03:52:13.717Z,101487.00
2022-11-25T03:54:43.927Z,101490.44
2022-11-25T03:57:14.313Z,101494.69
2022-11-25T03:59:44.473Z,101489.41
2022-11-25T04:02:14.751Z,101489.38
2022-11-25T04:04:44.908Z,101505.91
2022-11-25T04:07:15.111Z,101503.16
2022-11-25T04:09:45.419Z,101496.13
2022-11-25T04:12:34.261Z,101496.94
2022-11-25T04:15:04.856Z,101501.19
2022-11-25T04:17:34.969Z,101490.63
2022-11-25T04:20:05.960Z,101502.84
2022-11-25T04:22:36.214Z,101503.31
2022-11-25T04:25:07.057Z,101509.47
2022-11-25T04:27:37.379Z,101504.97
2022-11-25T04:30:08.739Z,101503.31
2022-11-25T04:32:39.324Z,101485.91
2022-11-25T04:35:09.843Z,101498.75
2022-11-25T04:37:39.968Z,101515.19
2022-11-25T04:40:10.874Z,101503.84
2022-11-25T04:42:41.178Z,101494.38
2022-11-25T04:45:23.002Z,101510.72
2022-11-25T04:47:53.961Z,101503.84
2022-11-25T04:50:25.101Z,101496.66
2022-11-25T04:52:55.289Z,101508.06
2022-11-25T04:55:25.450Z,101502.84
2022-11-25T04:57:55.846Z,101489.50
2022-11-25T05:00:25.978Z,101489.53
2022-11-25T05:02:56.217Z,101487.81
2022-11-25T05:05:26.337Z,101500.94
2022-11-25T05:07:57.355Z,101516.50
2022-11-25T05:10:27.620Z,101495.50
2022-11-25T05:12:57.779Z,101505.34
2022-11-25T05:15:27.918Z,101497.25
2022-11-25T05:17:58.053Z,101497.25
2022-11-25T05:20:28.142Z,101510.44
2022-11-25T05:22:58.274Z,101511.22
2022-11-25T05:25:28.443Z,101505.16
2022-11-25T05:27:58.505Z,101503.31
2022-11-25T05:30:28.730Z,101512.03
2022-11-25T05:32:58.863Z,101508.72
2022-11-25T05:35:29.040Z,101509.34
2022-11-25T05:38:01.303Z,101511.72
2022-11-25T05:40:32.115Z,101524.72
2022-11-25T05:43:03.300Z,101521.97
2022-11-25T05:45:33.543Z,101528.06
2022-11-25T05:48:03.873Z,101527.38
2022-11-25T05:50:34.032Z,101521.38
2022-11-25T05:53:04.282Z,101522.34
2022-11-25T05:55:34.902Z,101532.72
2022-11-25T05:58:06.412Z,101535.47
2022-11-25T06:00:36.555Z,101526.44
2022-11-25T06:03:06.879Z,101546.59
2022-11-25T06:05:37.040Z,101527.44
2022-11-25T06:08:08.067Z,101523.25
2022-11-25T06:10:41.740Z,101528.50
2022-11-25T06:13:15.170Z,101533.97
2022-11-25T06:15:46.152Z,101535.47
2022-11-25T06:18:17.956Z,101541.44
2022-11-25T06:20:59.427Z,101541.44
2022-11-25T06:23:29.595Z,101529.88
2022-11-25T06:26:05.635Z,101549.94
2022-11-25T06:28:36.334Z,101549.94
2022-11-25T06:31:13.044Z,101551.81
2022-11-25T06:33:46.594Z,101557.81
2022-11-25T06:36:18.399Z,101537.84
2022-11-25T06:38:51.396Z,101560.66
2022-11-25T06:41:23.063Z,101558.78
2022-11-25T06:43:53.247Z,101568.34
2022-11-25T06:46:25.369Z,101569.22
2022-11-25T06:48:55.814Z,101555.59
2022-11-25T06:51:26.546Z,101565.88
2022-11-25T06:53:56.839Z,101549.44
2022-11-25T06:56:28.935Z,101587.00
2022-11-25T06:58:59.104Z,101581.91
2022-11-25T07:01:30.759Z,101548.50
2022-11-25T07:04:04.093Z,101567.03
2022-11-25T07:06:34.291Z,101585.56
2022-11-25T07:09:05.563Z,101579.50
2022-11-25T07:11:39.547Z,101564.75
2022-11-25T07:14:14.421Z,101561.22
2022-11-25T07:16:46.063Z,101573.50
2022-11-25T07:19:17.912Z,101574.72
2022-11-25T07:21:48.130Z,101565.88
2022-11-25T07:24:18.656Z,101571.09
2022-11-25T07:26:48.804Z,101566.66
2022-11-25T07:32:10.914Z,101578.16
2022-11-25T07:34:41.209Z,101580.78
2022-11-25T07:37:11.393Z,101587.00
2022-11-25T07:39:41.494Z,101590.31
2022-11-25T07:42:11.668Z,101573.09
2022-11-25T07:44:41.720Z,101583.78
2022-11-25T07:47:11.846Z,101578.81
2022-11-25T07:49:42.027Z,101588.41
2022-11-25T07:52:12.203Z,101582.47
2022-11-25T07:54:42.407Z,101583.34
2022-11-25T07:57:12.511Z,101588.75
2022-11-25T07:59:42.796Z,101598.19
2022-11-25T08:02:13.217Z,101601.06
2022-11-25T08:04:43.420Z,101580.78
2022-11-25T08:07:13.772Z,101591.41
2022-11-25T08:09:44.010Z,101574.88
2022-11-25T08:12:14.081Z,101594.06
2022-11-25T08:14:44.315Z,101606.38
2022-11-25T08:17:14.441Z,101601.25
2022-11-25T08:19:44.611Z,101607.41
2022-11-25T08:22:14.832Z,101605.75
2022-11-25T08:24:44.993Z,101596.09
2022-11-25T08:27:15.172Z,101612.78
2022-11-25T08:29:45.308Z,101591.97
2022-11-25T08:32:15.678Z,101591.19
2022-11-25T08:34:45.933Z,101600.28
2022-11-25T08:37:16.255Z,101602.03
2022-11-25T08:39:54.011Z,101594.91
2022-11-25T08:42:24.427Z,101608.00
2022-11-25T08:44:56.177Z,101613.94
2022-11-25T08:47:26.724Z,101604.25
2022-11-25T08:49:56.852Z,101595.47
2022-11-25T08:52:29.201Z,101611.19
2022-11-25T08:54:59.381Z,101618.88
2022-11-25T08:57:30.204Z,101610.91
2022-11-25T09:00:00.355Z,101602.06
2022-11-25T09:02:30.762Z,101605.59
2022-11-25T09:05:01.386Z,101612.59
2022-11-25T09:07:31.533Z,101607.13
2022-11-25T09:10:01.792Z,101614.09
2022-11-25T09:12:31.936Z,101620.44
2022-11-25T09:15:02.110Z,101607.41
2022-11-25T09:17:34.620Z,101620.72
2022-11-25T09:20:06.099Z,101617.34
2022-11-25T09:22:36.883Z,101623.63
2022-11-25T09:25:07.537Z,101605.44
2022-11-25T09:27:37.663Z,101622.97
2022-11-25T09:30:08.404Z,101572.25
2022-11-25T09:32:38.703Z,101581.84
2022-11-25T09:35:09.014Z,101632.66
2022-11-25T09:37:39.249Z,101607.25
2022-11-25T09:40:18.895Z,101592.91
2022-11-25T09:43:21.564Z,101629.91
2022-11-25T09:46:21.841Z,101602.59
2022-11-25T09:49:07.346Z,101635.31
2022-11-25T09:51:46.891Z,101638.13
2022-11-25T09:54:30.066Z,101644.31
2022-11-25T09:57:27.277Z,101637.88
2022-11-25T10:00:21.587Z,101642.50
2022-11-25T10:03:15.719Z,101644.47
2022-11-25T10:05:57.773Z,101642.94
2022-11-25T10:08:35.680Z,101638.72
2022-11-25T10:11:21.386Z,101643.28
2022-11-25T10:14:09.451Z,101644.28
2022-11-25T10:16:52.412Z,101639.94
2022-11-25T10:19:57.153Z,101645.94
2022-11-25T10:22:41.576Z,101648.53
2022-11-25T10:25:17.257Z,101649.69
2022-11-25T10:28:09.363Z,101648.13
2022-11-25T10:31:03.097Z,101652.72
2022-11-25T10:33:41.211Z,101648.47
2022-11-25T10:36:18.116Z,101654.38
2022-11-25T10:39:00.034Z,101659.72
2022-11-25T10:41:38.740Z,101644.94
2022-11-25T10:44:37.268Z,101660.81
2022-11-25T10:47:32.155Z,101648.72
2022-11-25T10:50:26.833Z,101652.06
2022-11-25T10:53:04.829Z,101657.94
2022-11-25T10:55:35.600Z,101657.06
2022-11-25T10:58:36.400Z,101658.75
2022-11-25T11:01:17.891Z,101662.03
2022-11-25T11:04:06.134Z,101654.22
2022-11-25T11:06:38.714Z,101644.66
2022-11-25T11:09:39.126Z,101658.78
2022-11-25T11:12:25.855Z,101649.41
2022-11-25T11:15:21.234Z,101615.34
2022-11-25T11:17:52.034Z,101638.25
2022-11-25T11:20:27.973Z,101648.00
2022-11-25T11:23:14.302Z,101644.03
2022-11-25T11:26:09.858Z,101646.84
2022-11-25T11:28:41.831Z,101644.25
2022-11-25T11:31:23.231Z,101652.16
2022-11-25T11:34:07.263Z,101654.78
2022-11-25T11:37:07.107Z,101653.13
2022-11-25T11:40:00.913Z,101652.25
2022-11-25T11:42:56.126Z,101652.22
2022-11-25T11:45:45.933Z,101665.13
2022-11-25T11:48:34.857Z,101660.09
2022-11-25T11:51:10.639Z,101652.41
2022-11-25T11:53:54.414Z,101655.81
2022-11-25T11:56:40.275Z,101650.66
2022-11-25T11:59:13.442Z,101660.97
2022-11-25T12:01:54.383Z,101653.13
2022-11-25T12:04:45.016Z,101661.00
2022-11-25T12:07:41.892Z,101667.78
2022-11-25T12:10:15.114Z,101671.28
2022-11-25T12:12:55.290Z,101678.09
2022-11-25T12:15:33.330Z,101668.44
2022-11-25T12:18:15.039Z,101684.72
2022-11-25T12:20:51.960Z,101673.38
2022-11-25T12:23:52.930Z,101686.31
2022-11-25T12:26:31.772Z,101675.81
2022-11-25T12:29:09.421Z,101665.81
2022-11-25T12:31:50.755Z,101684.84
2022-11-25T12:34:36.464Z,101689.84
2022-11-25T12:37:24.137Z,101683.75
2022-11-25T12:40:14.453Z,101683.19
2022-11-25T12:42:46.586Z,101676.84
2022-11-25T12:45:26.653Z,101688.66
2022-11-25T12:47:56.773Z,101684.22
2022-11-25T12:50:45.276Z,101690.28
2022-11-25T12:53:33.116Z,101684.97
2022-11-25T12:56:06.390Z,101687.47
2022-11-25T12:58:43.136Z,101694.44
2022-11-25T13:01:32.118Z,101686.81
2022-11-25T13:04:08.385Z,101691.16
2022-11-25T13:06:44.539Z,101687.75
2022-11-25T13:09:29.917Z,101685.00
2022-11-25T13:12:09.398Z,101680.69
2022-11-25T13:15:20.769Z,101690.13
2022-11-25T13:17:56.811Z,101680.63
2022-11-25T13:20:30.172Z,101704.03
2022-11-25T13:23:16.836Z,101693.75
2022-11-25T13:25:49.700Z,101711.84
2022-11-25T13:28:31.606Z,101716.97
2022-11-25T13:31:13.865Z,101722.94
2022-11-25T13:33:44.237Z,101720.06
2022-11-25T13:36:20.246Z,101731.19
2022-11-25T13:38:50.250Z,101731.19
2022-11-25T13:41:20.434Z,101726.03
2022-11-25T13:44:40.594Z,101725.34
2022-11-25T13:47:49.188Z,101727.97
2022-11-25T13:50:28.959Z,101732.25
2022-11-25T13:53:23.951Z,101731.34
2022-11-25T13:56:14.988Z,101730.38
2022-11-25T13:59:15.876Z,101710.13
2022-11-25T14:01:46.055Z,101724.28
2022-11-25T14:04:16.975Z,101729.38
2022-11-25T14:07:06.096Z,101729.38
2022-11-25T14:10:10.065Z,101717.09
2022-11-25T14:13:04.417Z,101735.44
2022-11-25T14:15:56.080Z,101732.81
2022-11-25T14:22:27.687Z,101731.00
2022-11-25T14:25:30.467Z,101742.19
2022-11-25T14:28:22.195Z,101736.13
2022-11-25T14:30:55.769Z,101740.44
2022-11-25T14:33:33.349Z,101736.91
2022-11-25T14:36:13.984Z,101741.19
2022-11-25T14:38:50.091Z,101744.63
2022-11-25T14:41:26.792Z,101745.47
2022-11-25T14:44:04.836Z,101734.09
2022-11-25T14:46:35.326Z,101743.69
2022-11-25T14:49:18.979Z,101753.03
2022-11-25T14:51:56.284Z,101743.47
2022-11-25T14:54:27.044Z,101751.22
2022-11-25T14:56:57.826Z,101750.25
2022-11-25T14:59:28.582Z,101748.63
2022-11-25T15:01:58.750Z,101744.28
2022-11-25T15:04:32.224Z,101747.91
2022-11-25T15:07:02.299Z,101757.25
2022-11-25T15:09:39.094Z,101755.50
2022-11-25T15:12:15.803Z,101757.16
2022-11-25T15:14:55.986Z,101762.22
2022-11-25T15:17:30.694Z,101764.78
2022-11-25T15:20:17.596Z,101765.63
2022-11-25T15:22:49.493Z,101768.31
2022-11-25T15:25:20.073Z,101771.59
2022-11-25T15:27:52.043Z,101767.72
2022-11-25T15:30:25.611Z,101771.28
2022-11-25T15:32:57.255Z,101776.50
2022-11-25T15:35:27.996Z,101780.00
2022-11-25T15:37:58.292Z,101751.00
2022-11-25T15:40:40.896Z,101786.09
2022-11-25T15:43:26.515Z,101786.97
2022-11-25T15:46:04.490Z,101774.69
2022-11-25T15:48:46.879Z,101774.78
2022-11-25T15:51:29.868Z,101781.91
2022-11-25T15:54:23.113Z,101779.25
2022-11-25T15:56:58.350Z,101778.31
2022-11-25T15:59:47.387Z,101793.00
2022-11-25T16:02:44.304Z,101782.59
2022-11-25T16:05:15.070Z,101786.91
2022-11-25T16:07:51.565Z,101786.09
2022-11-25T16:10:29.097Z,101794.63
2022-11-25T16:13:25.813Z,101792.13
2022-11-25T16:15:55.767Z,101802.50
2022-11-25T16:18:40.786Z,101776.06
2022-11-25T16:21:18.010Z,101797.00
2022-11-25T16:23:52.513Z,101777.00
2022-11-25T16:26:30.198Z,101771.91
2022-11-25T16:29:03.055Z,101779.69
2022-11-25T16:31:33.591Z,101778.88
2022-11-25T16:34:18.754Z,101780.44
2022-11-25T16:36:48.940Z,101789.00
2022-11-25T16:39:20.706Z,101788.03
2022-11-25T16:42:04.891Z,101780.25
2022-11-25T16:44:37.239Z,101791.69
2022-11-25T16:47:10.083Z,101784.63
2022-11-25T16:49:40.232Z,101785.47
2022-11-25T16:52:10.584Z,101785.41
2022-11-25T16:54:41.992Z,101800.34
2022-11-25T16:57:19.498Z,101785.66
2022-11-25T16:59:54.587Z,101781.31
2022-11-25T17:02:27.812Z,101789.97
2022-11-25T17:04:59.870Z,101797.78
2022-11-25T17:07:33.235Z,101800.97
2022-11-25T17:10:04.653Z,101783.66
2022-11-25T17:12:36.173Z,101811.47
2022-11-25T17:15:13.674Z,101809.50
2022-11-25T17:17:47.785Z,101813.09
2022-11-25T17:20:21.844Z,101812.06
2022-11-25T17:22:53.183Z,101818.09
2022-11-25T17:25:25.742Z,101810.19
2022-11-25T17:27:57.483Z,101825.69
2022-11-25T17:30:28.140Z,101819.59
2022-11-25T17:33:15.609Z,101818.81
2022-11-25T17:35:46.310Z,101807.50
2022-11-25T17:38:20.776Z,101820.53
2022-11-25T17:40:51.036Z,101827.50
2022-11-25T17:43:21.434Z,101828.19
2022-11-25T17:45:51.566Z,101836.06
2022-11-25T17:48:21.749Z,101834.34
2022-11-25T17:50:51.945Z,101838.69
2022-11-25T17:53:22.157Z,101828.25
2022-11-25T17:55:53.339Z,101825.63
2022-11-25T17:58:23.529Z,101825.78
2022-11-25T18:00:53.782Z,101821.41
2022-11-25T18:03:24.949Z,101828.19
2022-11-25T18:05:55.137Z,101820.28
2022-11-25T18:08:25.352Z,101823.81
2022-11-25T18:10:56.175Z,101834.44
2022-11-25T18:13:26.400Z,101838.75
2022-11-25T18:15:56.670Z,101825.50
2022-11-25T18:18:26.861Z,101836.06
2022-11-25T18:20:57.117Z,101842.19
2022-11-25T18:23:27.315Z,101843.97
2022-11-25T18:26:00.752Z,101834.09
2022-11-25T18:28:32.104Z,101825.50
2022-11-25T18:31:06.650Z,101850.00
2022-11-25T18:33:39.813Z,101850.00
2022-11-25T18:36:13.092Z,101837.69
2022-11-25T18:38:43.241Z,101848.94
2022-11-25T18:41:20.288Z,101846.34
2022-11-25T18:43:51.085Z,101844.53
2022-11-25T18:46:21.456Z,101841.97
2022-11-25T18:48:54.750Z,101854.19
2022-11-25T18:51:24.999Z,101852.28
2022-11-25T18:53:55.080Z,101856.75
2022-11-25T18:56:25.277Z,101861.03
2022-11-25T18:58:55.470Z,101853.25
2022-11-25T19:01:26.680Z,101846.09
2022-11-25T19:03:57.208Z,101863.47
2022-11-25T19:06:30.400Z,101853.81
2022-11-25T19:09:00.928Z,101853.88
2022-11-25T19:11:36.815Z,101866.94
2022-11-25T19:14:15.951Z,101867.63
2022-11-25T19:16:46.717Z,101871.06
2022-11-25T19:19:17.318Z,101872.69
2022-11-25T19:21:47.504Z,101876.88
2022-11-25T19:24:17.724Z,101876.97
2022-11-25T19:26:50.443Z,101871.72
2022-11-25T19:29:27.779Z,101876.88
2022-11-25T19:31:59.020Z,101876.88
2022-11-25T19:34:44.157Z,101868.97
2022-11-25T19:37:20.193Z,101873.44
2022-11-25T19:39:51.632Z,101876.97
2022-11-25T19:42:23.136Z,101884.69
2022-11-25T19:44:53.457Z,101873.25
2022-11-25T19:47:26.034Z,101874.19
2022-11-25T19:50:01.640Z,101861.72
2022-11-25T19:52:38.081Z,101886.09
2022-11-25T19:55:17.996Z,101883.34
2022-11-25T19:57:49.081Z,101885.13
2022-11-25T20:00:21.401Z,101904.22
2022-11-25T20:02:54.766Z,101907.81
2022-11-25T20:05:44.726Z,101905.06
2022-11-25T20:08:33.035Z,101902.28
2022-11-25T20:11:03.236Z,101916.38
2022-11-25T20:13:34.834Z,101923.16
2022-11-25T20:16:13.371Z,101909.06
2022-11-25T20:18:44.653Z,101915.16
2022-11-25T20:21:28.141Z,101913.31
2022-11-25T20:23:58.670Z,101919.47
2022-11-25T20:26:32.062Z,101938.50
2022-11-25T20:29:02.806Z,101926.31
2022-11-25T20:31:32.921Z,101937.56
2022-11-25T20:34:04.054Z,101938.59
2022-11-25T20:36:34.304Z,101930.88
2022-11-25T20:39:05.413Z,101922.78
2022-11-25T20:41:35.538Z,101941.16
2022-11-25T20:44:06.015Z,101932.28
2022-11-25T20:46:36.224Z,101941.91
2022-11-25T20:49:21.106Z,101941.94
2022-11-25T20:51:52.422Z,101944.59
2022-11-25T20:54:26.610Z,101934.78
2022-11-25T20:56:57.403Z,101944.53
2022-11-25T20:59:28.933Z,101933.03
2022-11-25T21:01:59.286Z,101936.47
2022-11-25T21:04:29.400Z,101950.50
2022-11-25T21:07:04.078Z,101953.84
2022-11-25T21:09:42.360Z,101951.28
2022-11-25T21:12:18.903Z,101947.91
2022-11-25T21:14:50.387Z,101942.41
2022-11-25T21:17:21.620Z,101946.69
2022-11-25T21:19:57.445Z,101938.66
2022-11-25T21:22:27.679Z,101938.78
2022-11-25T21:24:57.782Z,101967.63
2022-11-25T21:27:28.499Z,101966.81
2022-11-25T21:29:59.319Z,101943.91
2022-11-25T21:32:29.575Z,101947.56
2022-11-25T21:34:59.782Z,101947.50
2022-11-25T21:37:35.145Z,101973.56
2022-11-25T21:40:07.187Z,101963.94
2022-11-25T21:42:37.604Z,101970.13
2022-11-25T21:45:16.093Z,101969.09
2022-11-25T21:47:46.832Z,101971.63
2022-11-25T21:50:19.461Z,101980.22
2022-11-25T21:52:50.342Z,101982.91
2022-11-25T21:55:20.881Z,101990.63
2022-11-25T21:57:51.536Z,101991.50
2022-11-25T22:00:26.058Z,101990.56
2022-11-25T22:02:56.396Z,101993.94
2022-11-25T22:05:26.918Z,101986.84
2022-11-25T22:07:57.468Z,102000.91
2022-11-25T22:10:27.780Z,102008.59
2022-11-25T22:12:58.631Z,101984.31
2022-11-25T22:15:28.890Z,102004.44
2022-11-25T22:17:59.175Z,101994.97
2022-11-25T22:20:31.157Z,102001.94
2022-11-25T22:23:02.786Z,102009.72
2022-11-25T22:25:33.850Z,101959.69
2022-11-25T22:28:05.035Z,101951.13
2022-11-25T22:30:35.358Z,101975.06
2022-11-25T22:33:06.344Z,101978.63
2022-11-25T22:35:36.456Z,101988.25
2022-11-25T22:38:14.434Z,101974.91
2022-11-25T22:40:49.592Z,102001.19
2022-11-25T22:43:27.666Z,101977.34
2022-11-25T22:45:58.582Z,101996.72
2022-11-25T22:48:34.932Z,102005.38
2022-11-25T22:51:06.234Z,102012.28
2022-11-25T22:53:36.822Z,102002.00
2022-11-25T22:56:17.201Z,102009.72
2022-11-25T22:58:47.560Z,102001.78
2022-11-25T23:01:17.834Z,101998.00
2022-11-25T23:03:48.488Z,102021.69
2022-11-25T23:06:19.128Z,102001.66
2022-11-25T23:08:49.931Z,102010.31
2022-11-25T23:11:21.241Z,102013.03
2022-11-25T23:13:51.558Z,102012.06
2022-11-25T23:16:21.990Z,102011.41
2022-11-25T23:18:52.791Z,102017.50
2022-11-25T23:21:25.624Z,102004.34
2022-11-25T23:23:56.055Z,102020.91
2022-11-25T23:29:14.531Z,102032.88
2022-11-25T23:31:44.989Z,102029.41
2022-11-25T23:34:16.242Z,102011.75
2022-11-25T23:36:49.285Z,102015.28
2022-11-25T23:39:21.466Z,102024.06
2022-11-25T23:41:53.055Z,102036.25
2022-11-25T23:44:30.989Z,102033.69
2022-11-25T23:47:04.755Z,102035.44
2022-11-25T23:49:38.958Z,102038.75
2022-11-25T23:52:14.916Z,102027.66
2022-11-25T23:54:47.747Z,102037.81
2022-11-25T23:57:24.741Z,102042.28
2022-11-25T23:59:55.059Z,102046.63
